sensor_id;sensor_type;location;lat;lon;timestamp;P1;P2;P0
49914;PMS5003;35806;47.958;13.158;2023-06-26T11:34:22;12;12;
49914;PMS5003;35806;47.958;13.158;2023-06-26T11:36:49;16;16;
49914;PMS5003;35806;47.958;13.158;2023-06-26T11:39:17;14;12;
49914;PMS5003;35806;47.958;13.158;2023-06-26T11:41:44;17;15;
49914;PMS5003;35806;47.958;13.158;2023-06-26T11:44:12;20;17;
49914;PMS5003;35806;47.958;13.158;2023-06-26T11:46:39;16;15;
49914;PMS5003;35806;47.958;13.158;2023-06-26T11:49:07;18;16;
49914;PMS5003;35806;47.958;13.158;2023-06-26T11:51:34;21;16;
49914;PMS5003;35806;47.958;13.158;2023-06-26T11:54:02;17;17;
49914;PMS5003;35806;47.958;13.158;2023-06-26T11:56:31;16;16;
49914;PMS5003;35806;47.958;13.158;2023-06-26T11:58:59;19;17;
49914;PMS5003;35806;47.958;13.158;2023-06-26T12:01:29;16;16;
49914;PMS5003;35806;47.958;13.158;2023-06-26T12:03:58;15;15;
49914;PMS5003;35806;47.958;13.158;2023-06-26T12:06:28;15;13;
49914;PMS5003;35806;47.958;13.158;2023-06-26T12:08:57;15;14;
49914;PMS5003;35806;47.958;13.158;2023-06-26T12:11:26;19;18;
49914;PMS5003;35806;47.958;13.158;2023-06-26T12:13:54;18;17;
49914;PMS5003;35806;47.958;13.158;2023-06-26T12:16:21;15;15;
49914;PMS5003;35806;47.958;13.158;2023-06-26T12:18:48;15;15;
49914;PMS5003;35806;47.958;13.158;2023-06-26T12:21:28;18;15;
49914;PMS5003;35806;47.958;13.158;2023-06-26T12:24:12;16;16;
49914;PMS5003;35806;47.958;13.158;2023-06-26T12:26:46;22;19;
49914;PMS5003;35806;47.958;13.158;2023-06-26T12:29:17;18;17;
49914;PMS5003;35806;47.958;13.158;2023-06-26T12:31:48;18;18;
49914;PMS5003;35806;47.958;13.158;2023-06-26T12:34:18;16;15;
49914;PMS5003;35806;47.958;13.158;2023-06-26T12:36:47;17;17;
49914;PMS5003;35806;47.958;13.158;2023-06-26T12:39:16;15;15;
49914;PMS5003;35806;47.958;13.158;2023-06-26T12:41:46;16;16;
49914;PMS5003;35806;47.958;13.158;2023-06-26T12:44:18;18;18;
49914;PMS5003;35806;47.958;13.158;2023-06-26T12:46:46;13;13;
49914;PMS5003;35806;47.958;13.158;2023-06-26T12:49:15;15;14;
49914;PMS5003;35806;47.958;13.158;2023-06-26T12:51:43;13;13;
49914;PMS5003;35806;47.958;13.158;2023-06-26T12:54:10;15;15;
49914;PMS5003;35806;47.958;13.158;2023-06-26T12:56:37;16;16;
49914;PMS5003;35806;47.958;13.158;2023-06-26T12:59:04;16;16;
49914;PMS5003;35806;47.958;13.158;2023-06-26T13:01:31;20;20;
49914;PMS5003;35806;47.958;13.158;2023-06-26T13:03:58;12;11;
49914;PMS5003;35806;47.958;13.158;2023-06-26T13:06:26;15;15;
49914;PMS5003;35806;47.958;13.158;2023-06-26T13:08:53;15;15;
49914;PMS5003;35806;47.958;13.158;2023-06-26T13:11:20;22;22;
49914;PMS5003;35806;47.958;13.158;2023-06-26T13:13:48;14;13;
49914;PMS5003;35806;47.958;13.158;2023-06-26T13:16:16;16;14;
49914;PMS5003;35806;47.958;13.158;2023-06-26T13:18:43;16;16;
49914;PMS5003;35806;47.958;13.158;2023-06-26T13:21:10;19;19;
49914;PMS5003;35806;47.958;13.158;2023-06-26T13:23:37;18;16;
49914;PMS5003;35806;47.958;13.158;2023-06-26T13:26:05;16;16;
49914;PMS5003;35806;47.958;13.158;2023-06-26T13:28:33;16;14;
49914;PMS5003;35806;47.958;13.158;2023-06-26T13:31:00;15;14;
49914;PMS5003;35806;47.958;13.158;2023-06-26T13:33:28;17;13;
49914;PMS5003;35806;47.958;13.158;2023-06-26T13:35:55;16;14;
49914;PMS5003;35806;47.958;13.158;2023-06-26T13:38:23;19;18;
49914;PMS5003;35806;47.958;13.158;2023-06-26T13:40:51;15;15;
49914;PMS5003;35806;47.958;13.158;2023-06-26T13:43:20;13;12;
49914;PMS5003;35806;47.958;13.158;2023-06-26T13:45:48;17;15;
49914;PMS5003;35806;47.958;13.158;2023-06-26T13:48:16;14;14;
49914;PMS5003;35806;47.958;13.158;2023-06-26T13:50:43;15;13;
49914;PMS5003;35806;47.958;13.158;2023-06-26T13:53:11;15;15;
49914;PMS5003;35806;47.958;13.158;2023-06-26T13:55:39;20;20;
49914;PMS5003;35806;47.958;13.158;2023-06-26T13:58:07;17;14;
49914;PMS5003;35806;47.958;13.158;2023-06-26T14:00:35;17;16;
49914;PMS5003;35806;47.958;13.158;2023-06-26T14:03:02;16;15;
49914;PMS5003;35806;47.958;13.158;2023-06-26T14:05:30;16;16;
49914;PMS5003;35806;47.958;13.158;2023-06-26T14:07:58;16;16;
49914;PMS5003;35806;47.958;13.158;2023-06-26T14:10:25;17;16;
49914;PMS5003;35806;47.958;13.158;2023-06-26T14:12:53;15;14;
49914;PMS5003;35806;47.958;13.158;2023-06-26T14:15:20;20;20;
49914;PMS5003;35806;47.958;13.158;2023-06-26T14:17:47;16;14;
49914;PMS5003;35806;47.958;13.158;2023-06-26T14:20:15;14;14;
49914;PMS5003;35806;47.958;13.158;2023-06-26T14:22:43;15;15;
49914;PMS5003;35806;47.958;13.158;2023-06-26T14:25:11;16;16;
49914;PMS5003;35806;47.958;13.158;2023-06-26T14:27:38;16;16;
49914;PMS5003;35806;47.958;13.158;2023-06-26T14:30:06;15;15;
49914;PMS5003;35806;47.958;13.158;2023-06-26T14:32:34;14;14;
49914;PMS5003;35806;47.958;13.158;2023-06-26T14:35:02;15;15;
49914;PMS5003;35806;47.958;13.158;2023-06-26T14:37:30;16;15;
49914;PMS5003;35806;47.958;13.158;2023-06-26T14:39:57;16;15;
49914;PMS5003;35806;47.958;13.158;2023-06-26T14:42:24;17;17;
49914;PMS5003;35806;47.958;13.158;2023-06-26T14:44:51;17;16;
49914;PMS5003;35806;47.958;13.158;2023-06-26T14:47:19;14;13;
49914;PMS5003;35806;47.958;13.158;2023-06-26T14:49:47;13;13;
49914;PMS5003;35806;47.958;13.158;2023-06-26T14:52:14;16;16;
49914;PMS5003;35806;47.958;13.158;2023-06-26T14:54:42;21;16;
49914;PMS5003;35806;47.958;13.158;2023-06-26T14:57:09;17;15;
49914;PMS5003;35806;47.958;13.158;2023-06-26T14:59:37;13;13;
49914;PMS5003;35806;47.958;13.158;2023-06-26T15:02:04;16;16;
49914;PMS5003;35806;47.958;13.158;2023-06-26T15:04:32;17;17;
49914;PMS5003;35806;47.958;13.158;2023-06-26T15:07:00;16;16;
49914;PMS5003;35806;47.958;13.158;2023-06-26T15:09:27;14;14;
49914;PMS5003;35806;47.958;13.158;2023-06-26T15:11:55;19;19;
49914;PMS5003;35806;47.958;13.158;2023-06-26T15:14:22;17;17;
49914;PMS5003;35806;47.958;13.158;2023-06-26T15:16:50;14;14;
49914;PMS5003;35806;47.958;13.158;2023-06-26T15:19:17;19;17;
49914;PMS5003;35806;47.958;13.158;2023-06-26T15:21:44;17;17;
49914;PMS5003;35806;47.958;13.158;2023-06-26T15:24:13;17;15;
49914;PMS5003;35806;47.958;13.158;2023-06-26T15:26:40;16;15;
49914;PMS5003;35806;47.958;13.158;2023-06-26T15:29:07;15;15;
49914;PMS5003;35806;47.958;13.158;2023-06-26T15:31:34;14;14;
49914;PMS5003;35806;47.958;13.158;2023-06-26T15:34:02;12;12;
49914;PMS5003;35806;47.958;13.158;2023-06-26T15:36:29;14;14;
49914;PMS5003;35806;47.958;13.158;2023-06-26T15:38:57;14;14;
49914;PMS5003;35806;47.958;13.158;2023-06-26T15:41:24;17;16;
49914;PMS5003;35806;47.958;13.158;2023-06-26T15:43:52;15;15;
49914;PMS5003;35806;47.958;13.158;2023-06-26T15:46:20;14;14;
49914;PMS5003;35806;47.958;13.158;2023-06-26T15:48:47;14;14;
49914;PMS5003;35806;47.958;13.158;2023-06-26T15:51:14;18;17;
49914;PMS5003;35806;47.958;13.158;2023-06-26T15:53:42;16;16;
49914;PMS5003;35806;47.958;13.158;2023-06-26T15:56:10;15;15;
49914;PMS5003;35806;47.958;13.158;2023-06-26T15:58:37;17;17;
49914;PMS5003;35806;47.958;13.158;2023-06-26T16:01:05;18;17;
49914;PMS5003;35806;47.958;13.158;2023-06-26T16:03:33;12;12;
49914;PMS5003;35806;47.958;13.158;2023-06-26T16:06:01;14;14;
49914;PMS5003;35806;47.958;13.158;2023-06-26T16:08:28;16;16;
49914;PMS5003;35806;47.958;13.158;2023-06-26T16:10:55;18;17;
49914;PMS5003;35806;47.958;13.158;2023-06-26T16:13:22;16;15;
49914;PMS5003;35806;47.958;13.158;2023-06-26T16:15:50;19;18;
49914;PMS5003;35806;47.958;13.158;2023-06-26T16:18:17;15;15;
49914;PMS5003;35806;47.958;13.158;2023-06-26T16:20:50;13;13;
49914;PMS5003;35806;47.958;13.158;2023-06-26T16:23:17;17;16;
49914;PMS5003;35806;47.958;13.158;2023-06-26T16:25:44;17;15;
49914;PMS5003;35806;47.958;13.158;2023-06-26T16:28:12;17;17;
49914;PMS5003;35806;47.958;13.158;2023-06-26T16:30:40;19;15;
49914;PMS5003;35806;47.958;13.158;2023-06-26T16:33:07;18;17;
49914;PMS5003;35806;47.958;13.158;2023-06-26T16:35:35;17;15;
49914;PMS5003;35806;47.958;13.158;2023-06-26T16:38:03;19;19;
49914;PMS5003;35806;47.958;13.158;2023-06-26T16:40:36;15;15;
49914;PMS5003;35806;47.958;13.158;2023-06-26T16:43:04;16;16;
49914;PMS5003;35806;47.958;13.158;2023-06-26T16:45:31;19;19;
49914;PMS5003;35806;47.958;13.158;2023-06-26T16:48:00;20;18;
49914;PMS5003;35806;47.958;13.158;2023-06-26T16:50:27;19;17;
49914;PMS5003;35806;47.958;13.158;2023-06-26T16:52:54;18;18;
49914;PMS5003;35806;47.958;13.158;2023-06-26T16:55:21;18;18;
49914;PMS5003;35806;47.958;13.158;2023-06-26T16:57:49;20;20;
49914;PMS5003;35806;47.958;13.158;2023-06-26T17:00:16;15;14;
49914;PMS5003;35806;47.958;13.158;2023-06-26T17:02:44;16;15;
49914;PMS5003;35806;47.958;13.158;2023-06-26T17:05:11;17;16;
49914;PMS5003;35806;47.958;13.158;2023-06-26T17:07:38;16;16;
49914;PMS5003;35806;47.958;13.158;2023-06-26T17:10:06;22;21;
49914;PMS5003;35806;47.958;13.158;2023-06-26T17:12:36;20;19;
49914;PMS5003;35806;47.958;13.158;2023-06-26T17:15:05;15;15;
49914;PMS5003;35806;47.958;13.158;2023-06-26T17:17:34;22;20;
49914;PMS5003;35806;47.958;13.158;2023-06-26T17:20:01;16;16;
49914;PMS5003;35806;47.958;13.158;2023-06-26T17:22:29;18;18;
49914;PMS5003;35806;47.958;13.158;2023-06-26T17:24:56;18;17;
49914;PMS5003;35806;47.958;13.158;2023-06-26T17:27:23;20;20;
49914;PMS5003;35806;47.958;13.158;2023-06-26T17:29:51;15;14;
49914;PMS5003;35806;47.958;13.158;2023-06-26T17:32:18;17;17;
49914;PMS5003;35806;47.958;13.158;2023-06-26T17:34:46;22;18;
49914;PMS5003;35806;47.958;13.158;2023-06-26T17:37:14;18;18;
49914;PMS5003;35806;47.958;13.158;2023-06-26T17:39:41;21;18;
49914;PMS5003;35806;47.958;13.158;2023-06-26T17:42:08;18;18;
49914;PMS5003;35806;47.958;13.158;2023-06-26T17:44:41;21;19;
49914;PMS5003;35806;47.958;13.158;2023-06-26T17:47:13;22;21;
49914;PMS5003;35806;47.958;13.158;2023-06-26T17:49:41;18;16;
49914;PMS5003;35806;47.958;13.158;2023-06-26T17:52:08;24;22;
49914;PMS5003;35806;47.958;13.158;2023-06-26T17:54:35;22;19;
49914;PMS5003;35806;47.958;13.158;2023-06-26T17:57:02;17;17;
49914;PMS5003;35806;47.958;13.158;2023-06-26T17:59:30;20;18;
49914;PMS5003;35806;47.958;13.158;2023-06-26T18:01:57;19;19;
49914;PMS5003;35806;47.958;13.158;2023-06-26T18:04:24;18;18;
49914;PMS5003;35806;47.958;13.158;2023-06-26T18:06:52;20;17;
49914;PMS5003;35806;47.958;13.158;2023-06-26T18:09:19;22;20;
49914;PMS5003;35806;47.958;13.158;2023-06-26T18:11:46;19;18;
49914;PMS5003;35806;47.958;13.158;2023-06-26T18:14:13;22;19;
49914;PMS5003;35806;47.958;13.158;2023-06-26T18:16:41;17;17;
49914;PMS5003;35806;47.958;13.158;2023-06-26T18:19:08;24;22;
49914;PMS5003;35806;47.958;13.158;2023-06-26T18:21:36;18;18;
49914;PMS5003;35806;47.958;13.158;2023-06-26T18:24:03;18;18;
49914;PMS5003;35806;47.958;13.158;2023-06-26T18:26:30;19;18;
49914;PMS5003;35806;47.958;13.158;2023-06-26T18:28:58;23;21;
49914;PMS5003;35806;47.958;13.158;2023-06-26T18:31:26;22;22;
49914;PMS5003;35806;47.958;13.158;2023-06-26T18:33:53;16;15;
49914;PMS5003;35806;47.958;13.158;2023-06-26T18:36:21;21;21;
49914;PMS5003;35806;47.958;13.158;2023-06-26T18:38:48;21;19;
49914;PMS5003;35806;47.958;13.158;2023-06-26T18:41:16;21;21;
49914;PMS5003;35806;47.958;13.158;2023-06-26T18:43:44;17;17;
49914;PMS5003;35806;47.958;13.158;2023-06-26T18:46:11;17;15;
49914;PMS5003;35806;47.958;13.158;2023-06-26T18:48:39;18;17;
49914;PMS5003;35806;47.958;13.158;2023-06-26T18:51:07;22;19;
49914;PMS5003;35806;47.958;13.158;2023-06-26T18:53:34;23;21;
49914;PMS5003;35806;47.958;13.158;2023-06-26T18:56:02;20;20;
49914;PMS5003;35806;47.958;13.158;2023-06-26T18:58:30;17;17;
49914;PMS5003;35806;47.958;13.158;2023-06-26T19:00:57;21;21;
49914;PMS5003;35806;47.958;13.158;2023-06-26T19:03:25;18;18;
49914;PMS5003;35806;47.958;13.158;2023-06-26T19:05:52;19;19;
49914;PMS5003;35806;47.958;13.158;2023-06-26T19:08:19;24;23;
49914;PMS5003;35806;47.958;13.158;2023-06-26T19:10:46;18;17;
49914;PMS5003;35806;47.958;13.158;2023-06-26T19:13:14;20;17;
49914;PMS5003;35806;47.958;13.158;2023-06-26T19:15:42;20;19;
49914;PMS5003;35806;47.958;13.158;2023-06-26T19:18:09;18;18;
49914;PMS5003;35806;47.958;13.158;2023-06-26T19:20:36;21;21;
49914;PMS5003;35806;47.958;13.158;2023-06-26T19:23:04;19;15;
49914;PMS5003;35806;47.958;13.158;2023-06-26T19:25:36;23;23;
49914;PMS5003;35806;47.958;13.158;2023-06-26T19:28:04;21;20;
49914;PMS5003;35806;47.958;13.158;2023-06-26T19:30:31;22;22;
49914;PMS5003;35806;47.958;13.158;2023-06-26T19:32:59;25;23;
49914;PMS5003;35806;47.958;13.158;2023-06-26T19:35:27;19;19;
49914;PMS5003;35806;47.958;13.158;2023-06-26T19:37:54;22;22;
49914;PMS5003;35806;47.958;13.158;2023-06-26T19:40:22;24;23;
49914;PMS5003;35806;47.958;13.158;2023-06-26T19:42:51;22;19;
49914;PMS5003;35806;47.958;13.158;2023-06-26T19:45:18;22;21;
49914;PMS5003;35806;47.958;13.158;2023-06-26T19:47:51;23;23;
49914;PMS5003;35806;47.958;13.158;2023-06-26T19:50:18;19;17;
49914;PMS5003;35806;47.958;13.158;2023-06-26T19:52:50;20;20;
49914;PMS5003;35806;47.958;13.158;2023-06-26T19:55:17;19;19;
49914;PMS5003;35806;47.958;13.158;2023-06-26T19:57:45;21;18;
49914;PMS5003;35806;47.958;13.158;2023-06-26T20:00:14;24;23;
49914;PMS5003;35806;47.958;13.158;2023-06-26T20:02:42;22;22;
49914;PMS5003;35806;47.958;13.158;2023-06-26T20:05:09;21;21;
49914;PMS5003;35806;47.958;13.158;2023-06-26T20:07:42;23;23;
49914;PMS5003;35806;47.958;13.158;2023-06-26T20:10:09;24;24;
49914;PMS5003;35806;47.958;13.158;2023-06-26T20:12:47;22;22;
49914;PMS5003;35806;47.958;13.158;2023-06-26T20:15:14;23;22;
49914;PMS5003;35806;47.958;13.158;2023-06-26T20:17:41;22;21;
49914;PMS5003;35806;47.958;13.158;2023-06-26T20:20:09;24;24;
49914;PMS5003;35806;47.958;13.158;2023-06-26T20:22:37;26;26;
49914;PMS5003;35806;47.958;13.158;2023-06-26T20:25:05;27;26;
49914;PMS5003;35806;47.958;13.158;2023-06-26T20:27:32;22;22;
49914;PMS5003;35806;47.958;13.158;2023-06-26T20:29:59;26;22;
49914;PMS5003;35806;47.958;13.158;2023-06-26T20:32:26;27;25;
49914;PMS5003;35806;47.958;13.158;2023-06-26T20:35:46;20;20;
49914;PMS5003;35806;47.958;13.158;2023-06-26T20:38:13;21;21;
49914;PMS5003;35806;47.958;13.158;2023-06-26T20:40:41;23;23;
49914;PMS5003;35806;47.958;13.158;2023-06-26T20:43:09;25;25;
49914;PMS5003;35806;47.958;13.158;2023-06-26T20:45:37;23;23;
49914;PMS5003;35806;47.958;13.158;2023-06-26T20:48:05;23;23;
49914;PMS5003;35806;47.958;13.158;2023-06-26T20:50:33;30;28;
49914;PMS5003;35806;47.958;13.158;2023-06-26T20:53:06;27;26;
49914;PMS5003;35806;47.958;13.158;2023-06-26T20:55:34;24;24;
49914;PMS5003;35806;47.958;13.158;2023-06-26T20:58:02;25;23;
49914;PMS5003;35806;47.958;13.158;2023-06-26T21:00:30;23;23;
49914;PMS5003;35806;47.958;13.158;2023-06-26T21:02:57;22;22;
49914;PMS5003;35806;47.958;13.158;2023-06-26T21:05:24;23;21;
49914;PMS5003;35806;47.958;13.158;2023-06-26T21:07:51;26;24;
49914;PMS5003;35806;47.958;13.158;2023-06-26T21:10:18;23;23;
49914;PMS5003;35806;47.958;13.158;2023-06-26T21:12:45;23;22;
49914;PMS5003;35806;47.958;13.158;2023-06-26T21:15:12;21;19;
49914;PMS5003;35806;47.958;13.158;2023-06-26T21:17:39;23;23;
49914;PMS5003;35806;47.958;13.158;2023-06-26T21:20:06;22;22;
49914;PMS5003;35806;47.958;13.158;2023-06-26T21:22:34;20;20;
49914;PMS5003;35806;47.958;13.158;2023-06-26T21:25:01;22;19;
49914;PMS5003;35806;47.958;13.158;2023-06-26T21:27:29;22;20;
49914;PMS5003;35806;47.958;13.158;2023-06-26T21:29:56;19;18;
49914;PMS5003;35806;47.958;13.158;2023-06-26T21:32:23;23;21;
49914;PMS5003;35806;47.958;13.158;2023-06-26T21:34:50;20;16;
49914;PMS5003;35806;47.958;13.158;2023-06-26T21:37:18;18;18;
49914;PMS5003;35806;47.958;13.158;2023-06-26T21:39:45;16;16;
49914;PMS5003;35806;47.958;13.158;2023-06-26T21:42:12;19;19;
49914;PMS5003;35806;47.958;13.158;2023-06-26T21:44:39;22;20;
49914;PMS5003;35806;47.958;13.158;2023-06-26T21:47:07;19;18;
49914;PMS5003;35806;47.958;13.158;2023-06-26T21:49:34;21;17;
49914;PMS5003;35806;47.958;13.158;2023-06-26T21:52:02;19;19;
49914;PMS5003;35806;47.958;13.158;2023-06-26T21:54:29;17;14;
49914;PMS5003;35806;47.958;13.158;2023-06-26T21:56:56;21;20;
49914;PMS5003;35806;47.958;13.158;2023-06-26T21:59:28;19;19;
49914;PMS5003;35806;47.958;13.158;2023-06-26T22:01:55;17;17;
49914;PMS5003;35806;47.958;13.158;2023-06-26T22:04:22;18;18;
49914;PMS5003;35806;47.958;13.158;2023-06-26T22:06:50;16;16;
49914;PMS5003;35806;47.958;13.158;2023-06-26T22:09:17;19;18;
49914;PMS5003;35806;47.958;13.158;2023-06-26T22:11:45;16;16;
49914;PMS5003;35806;47.958;13.158;2023-06-26T22:14:12;16;15;
49914;PMS5003;35806;47.958;13.158;2023-06-26T22:16:39;14;14;
49914;PMS5003;35806;47.958;13.158;2023-06-26T22:19:07;17;17;
49914;PMS5003;35806;47.958;13.158;2023-06-26T22:21:34;15;15;
49914;PMS5003;35806;47.958;13.158;2023-06-26T22:24:02;17;17;
49914;PMS5003;35806;47.958;13.158;2023-06-26T22:26:29;18;16;
49914;PMS5003;35806;47.958;13.158;2023-06-26T22:28:56;19;19;
49914;PMS5003;35806;47.958;13.158;2023-06-26T22:31:23;19;18;
49914;PMS5003;35806;47.958;13.158;2023-06-26T22:33:50;14;14;
49914;PMS5003;35806;47.958;13.158;2023-06-26T22:36:18;19;18;
49914;PMS5003;35806;47.958;13.158;2023-06-26T22:38:45;18;17;
49914;PMS5003;35806;47.958;13.158;2023-06-26T22:41:12;21;21;
49914;PMS5003;35806;47.958;13.158;2023-06-26T22:43:39;19;19;
49914;PMS5003;35806;47.958;13.158;2023-06-26T22:46:06;14;14;
49914;PMS5003;35806;47.958;13.158;2023-06-26T22:48:33;14;14;
49914;PMS5003;35806;47.958;13.158;2023-06-26T22:51:00;21;20;
49914;PMS5003;35806;47.958;13.158;2023-06-26T22:53:27;18;15;
49914;PMS5003;35806;47.958;13.158;2023-06-26T22:55:54;14;14;
49914;PMS5003;35806;47.958;13.158;2023-06-26T22:58:22;16;16;
49914;PMS5003;35806;47.958;13.158;2023-06-26T23:00:50;18;16;
49914;PMS5003;35806;47.958;13.158;2023-06-26T23:03:18;18;17;
49914;PMS5003;35806;47.958;13.158;2023-06-26T23:05:45;14;14;
49914;PMS5003;35806;47.958;13.158;2023-06-26T23:08:12;15;15;
49914;PMS5003;35806;47.958;13.158;2023-06-26T23:10:39;19;18;
49914;PMS5003;35806;47.958;13.158;2023-06-26T23:13:07;16;16;
49914;PMS5003;35806;47.958;13.158;2023-06-26T23:15:34;21;17;
49914;PMS5003;35806;47.958;13.158;2023-06-26T23:18:01;17;16;
49914;PMS5003;35806;47.958;13.158;2023-06-26T23:20:28;16;16;
49914;PMS5003;35806;47.958;13.158;2023-06-26T23:22:56;16;15;
49914;PMS5003;35806;47.958;13.158;2023-06-26T23:25:23;17;17;
49914;PMS5003;35806;47.958;13.158;2023-06-26T23:27:50;14;14;
49914;PMS5003;35806;47.958;13.158;2023-06-26T23:30:18;16;15;
49914;PMS5003;35806;47.958;13.158;2023-06-26T23:32:45;12;12;
49914;PMS5003;35806;47.958;13.158;2023-06-26T23:35:13;15;13;
49914;PMS5003;35806;47.958;13.158;2023-06-26T23:37:40;13;12;
49914;PMS5003;35806;47.958;13.158;2023-06-26T23:40:08;13;13;
49914;PMS5003;35806;47.958;13.158;2023-06-26T23:42:36;11;11;
49914;PMS5003;35806;47.958;13.158;2023-06-26T23:45:03;13;11;
49914;PMS5003;35806;47.958;13.158;2023-06-26T23:47:31;13;11;
49914;PMS5003;35806;47.958;13.158;2023-06-26T23:49:59;10;10;
49914;PMS5003;35806;47.958;13.158;2023-06-26T23:52:27;11;11;
49914;PMS5003;35806;47.958;13.158;2023-06-26T23:54:54;13;11;
49914;PMS5003;35806;47.958;13.158;2023-06-26T23:57:22;14;11;
49914;PMS5003;35806;47.958;13.158;2023-06-26T23:59:49;14;14;
